sensor_id;sensor_type;location;lat;lon;timestamp;pressure;altitude;pressure_sealevel;temperature;humidity
20696;BME280;10507;52.754;13.040;2022-09-16T00:00:54;99873.06;;;10.85;100.00
20696;BME280;10507;52.754;13.040;2022-09-16T00:03:22;99868.69;;;10.84;100.00
20696;BME280;10507;52.754;13.040;2022-09-16T00:05:52;99866.19;;;10.80;100.00
20696;BME280;10507;52.754;13.040;2022-09-16T00:08:21;99851.22;;;10.78;100.00
20696;BME280;10507;52.754;13.040;2022-09-16T00:10:49;99859.38;;;10.76;100.00
20696;BME280;10507;52.754;13.040;2022-09-16T00:13:17;99854.03;;;10.76;100.00
20696;BME280;10507;52.754;13.040;2022-09-16T00:15:48;99846.94;;;10.75;100.00
20696;BME280;10507;52.754;13.040;2022-09-16T00:18:17;99856.22;;;10.70;100.00
20696;BME280;10507;52.754;13.040;2022-09-16T00:20:47;99850.00;;;10.69;100.00
20696;BME280;10507;52.754;13.040;2022-09-16T00:23:17;99857.94;;;10.71;100.00
20696;BME280;10507;52.754;13.040;2022-09-16T00:25:49;99846.56;;;10.67;100.00
20696;BME280;10507;52.754;13.040;2022-09-16T00:28:18;99845.84;;;10.65;100.00
20696;BME280;10507;52.754;13.040;2022-09-16T00:30:47;99846.00;;;10.62;100.00
20696;BME280;10507;52.754;13.040;2022-09-16T00:33:16;99851.56;;;10.59;100.00
20696;BME280;10507;52.754;13.040;2022-09-16T00:35:44;99846.41;;;10.56;100.00
20696;BME280;10507;52.754;13.040;2022-09-16T00:38:12;99853.56;;;10.55;100.00
20696;BME280;10507;52.754;13.040;2022-09-16T00:40:44;99860.03;;;10.51;100.00
20696;BME280;10507;52.754;13.040;2022-09-16T00:43:13;99870.06;;;10.48;100.00
20696;BME280;10507;52.754;13.040;2022-09-16T00:45:43;99872.91;;;10.45;100.00
20696;BME280;10507;52.754;13.040;2022-09-16T00:48:16;99881.78;;;10.45;100.00
20696;BME280;10507;52.754;13.040;2022-09-16T00:50:48;99873.19;;;10.40;100.00
20696;BME280;10507;52.754;13.040;2022-09-16T00:53:19;99880.53;;;10.36;100.00
20696;BME280;10507;52.754;13.040;2022-09-16T00:55:50;99895.78;;;10.34;100.00
20696;BME280;10507;52.754;13.040;2022-09-16T00:58:23;99914.66;;;10.31;100.00
20696;BME280;10507;52.754;13.040;2022-09-16T01:00:52;99928.13;;;10.28;100.00
20696;BME280;10507;52.754;13.040;2022-09-16T01:03:19;99933.81;;;10.22;100.00
20696;BME280;10507;52.754;13.040;2022-09-16T01:05:48;99952.41;;;10.24;100.00
20696;BME280;10507;52.754;13.040;2022-09-16T01:08:16;99962.41;;;10.20;100.00
20696;BME280;10507;52.754;13.040;2022-09-16T01:10:43;99959.84;;;10.18;100.00
20696;BME280;10507;52.754;13.040;2022-09-16T01:13:13;99967.28;;;10.13;100.00
20696;BME280;10507;52.754;13.040;2022-09-16T01:15:47;99974.59;;;10.10;100.00
20696;BME280;10507;52.754;13.040;2022-09-16T01:18:24;99978.19;;;10.09;100.00
20696;BME280;10507;52.754;13.040;2022-09-16T01:21:15;99992.69;;;10.05;100.00
20696;BME280;10507;52.754;13.040;2022-09-16T01:24:03;99991.97;;;10.01;100.00
20696;BME280;10507;52.754;13.040;2022-09-16T01:30:15;100005.00;;;9.91;100.00
20696;BME280;10507;52.754;13.040;2022-09-16T01:32:52;100035.19;;;9.92;100.00
20696;BME280;10507;52.754;13.040;2022-09-16T01:35:35;100044.22;;;9.89;100.00
20696;BME280;10507;52.754;13.040;2022-09-16T01:38:21;100056.69;;;9.89;100.00
20696;BME280;10507;52.754;13.040;2022-09-16T01:40:58;100051.59;;;9.84;100.00
20696;BME280;10507;52.754;13.040;2022-09-16T01:43:37;100062.25;;;9.84;100.00
20696;BME280;10507;52.754;13.040;2022-09-16T01:46:15;100056.53;;;9.76;100.00
20696;BME280;10507;52.754;13.040;2022-09-16T01:48:50;100069.16;;;9.72;100.00
20696;BME280;10507;52.754;13.040;2022-09-16T01:51:24;100061.50;;;9.66;100.00
20696;BME280;10507;52.754;13.040;2022-09-16T01:54:01;100078.44;;;9.65;100.00
20696;BME280;10507;52.754;13.040;2022-09-16T01:56:34;100071.66;;;9.60;100.00
20696;BME280;10507;52.754;13.040;2022-09-16T01:59:07;100095.53;;;9.61;100.00
20696;BME280;10507;52.754;13.040;2022-09-16T02:01:39;100115.06;;;9.62;100.00
20696;BME280;10507;52.754;13.040;2022-09-16T02:04:14;100114.31;;;9.60;100.00
20696;BME280;10507;52.754;13.040;2022-09-16T02:06:44;100137.16;;;9.64;100.00
20696;BME280;10507;52.754;13.040;2022-09-16T02:09:17;100129.41;;;9.59;100.00
20696;BME280;10507;52.754;13.040;2022-09-16T02:11:48;100136.63;;;9.57;100.00
20696;BME280;10507;52.754;13.040;2022-09-16T02:14:20;100138.63;;;9.53;100.00
20696;BME280;10507;52.754;13.040;2022-09-16T02:16:52;100144.88;;;9.52;100.00
20696;BME280;10507;52.754;13.040;2022-09-16T02:19:24;100146.69;;;9.52;100.00
20696;BME280;10507;52.754;13.040;2022-09-16T02:21:54;100175.94;;;9.53;100.00
20696;BME280;10507;52.754;13.040;2022-09-16T02:24:25;100180.53;;;9.50;100.00
20696;BME280;10507;52.754;13.040;2022-09-16T02:26:57;100185.81;;;9.51;100.00
20696;BME280;10507;52.754;13.040;2022-09-16T02:29:28;100184.25;;;9.47;100.00
20696;BME280;10507;52.754;13.040;2022-09-16T02:32:00;100186.06;;;9.47;100.00
20696;BME280;10507;52.754;13.040;2022-09-16T02:34:33;100196.59;;;9.48;100.00
20696;BME280;10507;52.754;13.040;2022-09-16T02:37:06;100199.38;;;9.47;100.00
20696;BME280;10507;52.754;13.040;2022-09-16T02:39:38;100210.97;;;9.46;100.00
20696;BME280;10507;52.754;13.040;2022-09-16T02:42:06;100204.84;;;9.44;100.00
20696;BME280;10507;52.754;13.040;2022-09-16T02:44:34;100235.47;;;9.52;100.00
20696;BME280;10507;52.754;13.040;2022-09-16T02:47:08;100236.56;;;9.48;100.00
20696;BME280;10507;52.754;13.040;2022-09-16T02:49:42;100257.59;;;9.54;100.00
20696;BME280;10507;52.754;13.040;2022-09-16T02:52:20;100257.75;;;9.51;100.00
20696;BME280;10507;52.754;13.040;2022-09-16T02:54:55;100256.13;;;9.49;100.00
20696;BME280;10507;52.754;13.040;2022-09-16T02:57:28;100256.19;;;9.47;100.00
20696;BME280;10507;52.754;13.040;2022-09-16T02:59:55;100247.59;;;9.42;100.00
20696;BME280;10507;52.754;13.040;2022-09-16T03:02:24;100266.22;;;9.42;100.00
20696;BME280;10507;52.754;13.040;2022-09-16T03:04:54;100279.56;;;9.42;100.00
20696;BME280;10507;52.754;13.040;2022-09-16T03:07:22;100287.44;;;9.44;100.00
20696;BME280;10507;52.754;13.040;2022-09-16T03:09:50;100304.31;;;9.44;100.00
20696;BME280;10507;52.754;13.040;2022-09-16T03:12:40;100299.13;;;9.41;100.00
20696;BME280;10507;52.754;13.040;2022-09-16T03:18:09;100318.50;;;9.45;100.00
20696;BME280;10507;52.754;13.040;2022-09-16T03:20:46;100309.88;;;9.40;100.00
20696;BME280;10507;52.754;13.040;2022-09-16T03:23:24;100322.41;;;9.38;100.00
20696;BME280;10507;52.754;13.040;2022-09-16T03:26:00;100333.16;;;9.36;100.00
20696;BME280;10507;52.754;13.040;2022-09-16T03:28:35;100345.38;;;9.40;100.00
20696;BME280;10507;52.754;13.040;2022-09-16T03:31:06;100349.91;;;9.38;100.00
20696;BME280;10507;52.754;13.040;2022-09-16T03:33:38;100357.91;;;9.38;100.00
20696;BME280;10507;52.754;13.040;2022-09-16T03:36:13;100372.16;;;9.37;100.00
20696;BME280;10507;52.754;13.040;2022-09-16T03:38:42;100377.47;;;9.37;100.00
20696;BME280;10507;52.754;13.040;2022-09-16T03:41:12;100386.44;;;9.36;100.00
20696;BME280;10507;52.754;13.040;2022-09-16T03:43:40;100384.78;;;9.33;100.00
20696;BME280;10507;52.754;13.040;2022-09-16T03:46:18;100401.63;;;9.34;100.00
20696;BME280;10507;52.754;13.040;2022-09-16T03:48:46;100388.47;;;9.31;100.00
20696;BME280;10507;52.754;13.040;2022-09-16T03:51:15;100390.34;;;9.29;100.00
20696;BME280;10507;52.754;13.040;2022-09-16T03:53:43;100412.44;;;9.31;100.00
20696;BME280;10507;52.754;13.040;2022-09-16T03:56:10;100415.25;;;9.28;100.00
20696;BME280;10507;52.754;13.040;2022-09-16T03:58:38;100433.81;;;9.29;100.00
20696;BME280;10507;52.754;13.040;2022-09-16T04:01:06;100431.38;;;9.25;100.00
20696;BME280;10507;52.754;13.040;2022-09-16T04:03:33;100459.66;;;9.27;100.00
20696;BME280;10507;52.754;13.040;2022-09-16T04:06:03;100456.16;;;9.27;100.00
20696;BME280;10507;52.754;13.040;2022-09-16T04:08:32;100457.97;;;9.26;100.00
20696;BME280;10507;52.754;13.040;2022-09-16T04:11:01;100474.97;;;9.24;100.00
20696;BME280;10507;52.754;13.040;2022-09-16T04:13:31;100474.97;;;9.24;100.00
20696;BME280;10507;52.754;13.040;2022-09-16T04:16:01;100472.41;;;9.21;100.00
20696;BME280;10507;52.754;13.040;2022-09-16T04:18:29;100485.72;;;9.21;100.00
20696;BME280;10507;52.754;13.040;2022-09-16T04:20:57;100483.22;;;9.18;100.00
20696;BME280;10507;52.754;13.040;2022-09-16T04:23:26;100493.78;;;9.19;100.00
20696;BME280;10507;52.754;13.040;2022-09-16T04:25:57;100514.91;;;9.24;100.00
20696;BME280;10507;52.754;13.040;2022-09-16T04:28:25;100525.41;;;9.27;100.00
20696;BME280;10507;52.754;13.040;2022-09-16T04:30:53;100535.91;;;9.30;100.00
20696;BME280;10507;52.754;13.040;2022-09-16T04:33:21;100548.16;;;9.34;100.00
20696;BME280;10507;52.754;13.040;2022-09-16T04:35:49;100532.13;;;9.35;100.00
20696;BME280;10507;52.754;13.040;2022-09-16T04:38:17;100526.06;;;9.32;100.00
20696;BME280;10507;52.754;13.040;2022-09-16T04:40:45;100525.19;;;9.31;100.00
20696;BME280;10507;52.754;13.040;2022-09-16T04:43:14;100528.78;;;9.30;100.00
20696;BME280;10507;52.754;13.040;2022-09-16T04:45:41;100526.13;;;9.30;100.00
20696;BME280;10507;52.754;13.040;2022-09-16T04:48:09;100535.91;;;9.30;100.00
20696;BME280;10507;52.754;13.040;2022-09-16T04:50:37;100533.34;;;9.28;100.00
20696;BME280;10507;52.754;13.040;2022-09-16T04:53:04;100534.22;;;9.29;100.00
20696;BME280;10507;52.754;13.040;2022-09-16T04:55:32;100535.13;;;9.28;100.00
20696;BME280;10507;52.754;13.040;2022-09-16T04:58:00;100543.84;;;9.31;100.00
20696;BME280;10507;52.754;13.040;2022-09-16T05:00:29;100542.09;;;9.30;100.00
20696;BME280;10507;52.754;13.040;2022-09-16T05:02:57;100549.13;;;9.33;100.00
20696;BME280;10507;52.754;13.040;2022-09-16T05:05:25;100549.75;;;9.38;100.00
20696;BME280;10507;52.754;13.040;2022-09-16T05:07:53;100561.00;;;9.45;100.00
20696;BME280;10507;52.754;13.040;2022-09-16T05:10:20;100576.56;;;9.54;100.00
20696;BME280;10507;52.754;13.040;2022-09-16T05:12:50;100594.72;;;9.65;100.00
20696;BME280;10507;52.754;13.040;2022-09-16T05:15:18;100600.41;;;9.76;100.00
20696;BME280;10507;52.754;13.040;2022-09-16T05:17:47;100578.63;;;9.85;100.00
20696;BME280;10507;52.754;13.040;2022-09-16T05:20:17;100573.78;;;9.93;100.00
20696;BME280;10507;52.754;13.040;2022-09-16T05:22:47;100553.03;;;10.00;100.00
20696;BME280;10507;52.754;13.040;2022-09-16T05:25:16;100494.19;;;10.03;100.00
20696;BME280;10507;52.754;13.040;2022-09-16T05:27:44;100460.06;;;10.10;100.00
20696;BME280;10507;52.754;13.040;2022-09-16T05:30:12;100414.28;;;10.17;100.00
20696;BME280;10507;52.754;13.040;2022-09-16T05:32:42;100332.63;;;10.15;100.00
20696;BME280;10507;52.754;13.040;2022-09-16T05:35:12;100300.88;;;10.26;100.00
20696;BME280;10507;52.754;13.040;2022-09-16T05:37:39;100258.44;;;10.39;100.00
20696;BME280;10507;52.754;13.040;2022-09-16T05:40:07;100211.50;;;10.51;100.00
20696;BME280;10507;52.754;13.040;2022-09-16T05:42:35;100172.75;;;10.59;100.00
20696;BME280;10507;52.754;13.040;2022-09-16T05:45:04;100118.88;;;10.67;100.00
20696;BME280;10507;52.754;13.040;2022-09-16T05:47:33;100057.13;;;10.73;100.00
20696;BME280;10507;52.754;13.040;2022-09-16T05:50:01;100053.25;;;10.93;100.00
20696;BME280;10507;52.754;13.040;2022-09-16T05:52:30;100007.75;;;11.09;100.00
20696;BME280;10507;52.754;13.040;2022-09-16T05:54:58;99987.66;;;11.45;100.00
20696;BME280;10507;52.754;13.040;2022-09-16T05:57:26;99987.91;;;11.96;100.00
20696;BME280;10507;52.754;13.040;2022-09-16T05:59:54;99948.19;;;12.43;100.00
20696;BME280;10507;52.754;13.040;2022-09-16T06:02:21;99977.41;;;13.36;100.00
20696;BME280;10507;52.754;13.040;2022-09-16T06:04:49;99888.03;;;13.83;100.00
20696;BME280;10507;52.754;13.040;2022-09-16T06:07:17;99786.56;;;13.77;100.00
20696;BME280;10507;52.754;13.040;2022-09-16T06:09:47;99677.25;;;13.45;100.00
20696;BME280;10507;52.754;13.040;2022-09-16T06:12:14;99625.22;;;13.01;100.00
20696;BME280;10507;52.754;13.040;2022-09-16T06:14:42;99654.41;;;12.93;100.00
20696;BME280;10507;52.754;13.040;2022-09-16T06:17:10;99806.19;;;13.78;100.00
20696;BME280;10507;52.754;13.040;2022-09-16T06:19:38;99703.75;;;14.29;96.30
20696;BME280;10507;52.754;13.040;2022-09-16T06:22:05;99718.84;;;14.64;95.46
20696;BME280;10507;52.754;13.040;2022-09-16T06:24:33;99787.06;;;15.59;92.02
20696;BME280;10507;52.754;13.040;2022-09-16T06:27:02;99805.38;;;16.59;88.38
20696;BME280;10507;52.754;13.040;2022-09-16T06:29:30;99646.66;;;17.34;84.39
20696;BME280;10507;52.754;13.040;2022-09-16T06:31:58;99416.59;;;16.57;83.96
20696;BME280;10507;52.754;13.040;2022-09-16T06:34:26;99378.06;;;15.69;86.41
20696;BME280;10507;52.754;13.040;2022-09-16T06:36:53;99337.72;;;14.80;89.44
20696;BME280;10507;52.754;13.040;2022-09-16T06:39:21;99424.84;;;14.35;91.62
20696;BME280;10507;52.754;13.040;2022-09-16T06:41:49;99482.13;;;14.25;92.55
20696;BME280;10507;52.754;13.040;2022-09-16T06:44:18;99579.53;;;14.48;93.80
20696;BME280;10507;52.754;13.040;2022-09-16T06:46:46;99709.69;;;15.52;91.64
20696;BME280;10507;52.754;13.040;2022-09-16T06:49:14;99680.63;;;16.28;88.11
20696;BME280;10507;52.754;13.040;2022-09-16T06:51:42;99520.41;;;16.42;86.77
20696;BME280;10507;52.754;13.040;2022-09-16T06:54:10;99670.09;;;17.34;84.12
20696;BME280;10507;52.754;13.040;2022-09-16T06:56:38;99359.06;;;17.14;81.78
20696;BME280;10507;52.754;13.040;2022-09-16T06:59:08;99379.44;;;17.26;81.46
20696;BME280;10507;52.754;13.040;2022-09-16T07:01:37;99544.06;;;17.54;82.76
20696;BME280;10507;52.754;13.040;2022-09-16T07:04:07;99388.00;;;17.67;80.60
20696;BME280;10507;52.754;13.040;2022-09-16T07:06:36;99329.06;;;17.44;81.34
20696;BME280;10507;52.754;13.040;2022-09-16T07:09:24;99480.06;;;18.45;79.17
20696;BME280;10507;52.754;13.040;2022-09-16T07:11:52;99448.69;;;18.53;78.60
20696;BME280;10507;52.754;13.040;2022-09-16T07:14:20;99489.16;;;18.62;78.55
20696;BME280;10507;52.754;13.040;2022-09-16T07:16:50;99365.31;;;18.40;78.25
20696;BME280;10507;52.754;13.040;2022-09-16T07:24:49;99352.66;;;18.14;79.72
20696;BME280;10507;52.754;13.040;2022-09-16T07:27:41;99358.59;;;18.44;78.24
20696;BME280;10507;52.754;13.040;2022-09-16T07:30:09;99065.69;;;17.60;78.54
20696;BME280;10507;52.754;13.040;2022-09-16T07:32:38;99283.03;;;18.08;78.49
20696;BME280;10507;52.754;13.040;2022-09-16T07:35:07;99189.75;;;17.88;78.64
20696;BME280;10507;52.754;13.040;2022-09-16T07:37:35;99153.97;;;17.41;79.92
20696;BME280;10507;52.754;13.040;2022-09-16T07:40:10;99102.59;;;17.25;79.92
20696;BME280;10507;52.754;13.040;2022-09-16T07:42:38;99090.59;;;17.01;80.66
20696;BME280;10507;52.754;13.040;2022-09-16T07:45:08;99122.03;;;16.57;82.48
20696;BME280;10507;52.754;13.040;2022-09-16T07:47:36;99139.03;;;16.39;82.85
20696;BME280;10507;52.754;13.040;2022-09-16T07:50:06;99202.53;;;16.42;83.71
20696;BME280;10507;52.754;13.040;2022-09-16T07:52:34;99228.66;;;16.32;84.58
20696;BME280;10507;52.754;13.040;2022-09-16T07:55:13;99306.84;;;16.87;83.09
20696;BME280;10507;52.754;13.040;2022-09-16T07:58:04;99288.03;;;17.23;81.84
20696;BME280;10507;52.754;13.040;2022-09-16T08:03:35;99307.94;;;17.40;81.83
20696;BME280;10507;52.754;13.040;2022-09-16T08:06:07;99211.25;;;17.35;80.76
20696;BME280;10507;52.754;13.040;2022-09-16T08:08:36;99228.78;;;17.31;81.79
20696;BME280;10507;52.754;13.040;2022-09-16T08:11:04;99124.19;;;17.25;79.54
20696;BME280;10507;52.754;13.040;2022-09-16T08:13:33;99074.56;;;17.18;79.77
20696;BME280;10507;52.754;13.040;2022-09-16T08:16:02;99163.66;;;17.08;81.37
20696;BME280;10507;52.754;13.040;2022-09-16T08:18:31;99100.69;;;16.99;80.71
20696;BME280;10507;52.754;13.040;2022-09-16T08:21:05;99113.06;;;16.84;81.10
20696;BME280;10507;52.754;13.040;2022-09-16T08:23:34;99119.97;;;17.04;80.42
20696;BME280;10507;52.754;13.040;2022-09-16T08:26:02;99116.19;;;17.15;80.66
20696;BME280;10507;52.754;13.040;2022-09-16T08:28:31;99051.41;;;17.07;80.23
20696;BME280;10507;52.754;13.040;2022-09-16T08:31:19;99023.31;;;16.74;80.42
20696;BME280;10507;52.754;13.040;2022-09-16T08:33:47;98981.53;;;16.52;80.51
20696;BME280;10507;52.754;13.040;2022-09-16T08:36:18;99039.66;;;16.54;81.16
20696;BME280;10507;52.754;13.040;2022-09-16T08:38:48;98993.47;;;16.49;80.62
20696;BME280;10507;52.754;13.040;2022-09-16T08:41:33;99000.09;;;16.01;82.48
20696;BME280;10507;52.754;13.040;2022-09-16T08:44:12;98962.63;;;15.90;81.30
20696;BME280;10507;52.754;13.040;2022-09-16T08:46:49;98882.22;;;15.59;81.52
20696;BME280;10507;52.754;13.040;2022-09-16T08:49:21;98973.19;;;15.73;81.37
20696;BME280;10507;52.754;13.040;2022-09-16T08:51:56;99081.91;;;15.90;83.24
20696;BME280;10507;52.754;13.040;2022-09-16T08:54:27;99125.53;;;16.21;82.13
20696;BME280;10507;52.754;13.040;2022-09-16T08:56:58;99064.06;;;16.35;81.58
20696;BME280;10507;52.754;13.040;2022-09-16T08:59:33;98963.63;;;16.07;80.95
20696;BME280;10507;52.754;13.040;2022-09-16T09:02:36;98974.03;;;16.19;80.24
20696;BME280;10507;52.754;13.040;2022-09-16T09:05:13;98984.09;;;16.17;80.62
20696;BME280;10507;52.754;13.040;2022-09-16T09:07:52;99009.72;;;16.04;81.34
20696;BME280;10507;52.754;13.040;2022-09-16T09:10:24;99089.69;;;16.39;81.66
20696;BME280;10507;52.754;13.040;2022-09-16T09:13:00;99062.44;;;16.60;80.51
20696;BME280;10507;52.754;13.040;2022-09-16T09:15:39;99123.91;;;16.92;80.15
20696;BME280;10507;52.754;13.040;2022-09-16T09:18:16;99108.38;;;17.30;78.96
20696;BME280;10507;52.754;13.040;2022-09-16T09:20:53;98829.81;;;16.77;76.95
20696;BME280;10507;52.754;13.040;2022-09-16T09:23:43;98857.75;;;16.76;76.70
20696;BME280;10507;52.754;13.040;2022-09-16T09:26:19;98887.56;;;16.75;77.79
20696;BME280;10507;52.754;13.040;2022-09-16T09:29:04;98937.16;;;16.82;77.39
20696;BME280;10507;52.754;13.040;2022-09-16T09:31:42;98931.78;;;17.16;76.32
20696;BME280;10507;52.754;13.040;2022-09-16T09:34:26;98876.50;;;17.20;75.75
20696;BME280;10507;52.754;13.040;2022-09-16T09:37:14;98797.06;;;16.98;75.40
20696;BME280;10507;52.754;13.040;2022-09-16T09:39:54;98810.34;;;16.92;76.43
20696;BME280;10507;52.754;13.040;2022-09-16T09:42:29;98662.97;;;16.58;74.32
20696;BME280;10507;52.754;13.040;2022-09-16T09:45:02;98708.78;;;16.58;74.58
20696;BME280;10507;52.754;13.040;2022-09-16T09:47:33;98733.22;;;16.65;75.45
20696;BME280;10507;52.754;13.040;2022-09-16T09:50:14;98733.25;;;16.73;74.55
20696;BME280;10507;52.754;13.040;2022-09-16T09:52:46;98594.75;;;16.33;74.00
20696;BME280;10507;52.754;13.040;2022-09-16T09:55:20;98563.03;;;16.10;74.65
20696;BME280;10507;52.754;13.040;2022-09-16T09:57:58;98700.34;;;16.10;75.81
20696;BME280;10507;52.754;13.040;2022-09-16T10:00:27;98659.94;;;16.10;75.04
20696;BME280;10507;52.754;13.040;2022-09-16T10:03:01;98691.78;;;16.15;75.17
20696;BME280;10507;52.754;13.040;2022-09-16T10:05:31;98695.91;;;16.35;74.31
20696;BME280;10507;52.754;13.040;2022-09-16T10:08:02;98652.66;;;16.45;74.02
20696;BME280;10507;52.754;13.040;2022-09-16T10:10:33;98610.94;;;16.49;72.22
20696;BME280;10507;52.754;13.040;2022-09-16T10:13:08;98750.50;;;16.88;73.15
20696;BME280;10507;52.754;13.040;2022-09-16T10:15:36;98782.47;;;17.25;72.72
20696;BME280;10507;52.754;13.040;2022-09-16T10:18:11;98796.50;;;17.62;71.35
20696;BME280;10507;52.754;13.040;2022-09-16T10:20:42;98700.88;;;17.64;69.95
20696;BME280;10507;52.754;13.040;2022-09-16T10:23:11;98594.66;;;17.49;70.17
20696;BME280;10507;52.754;13.040;2022-09-16T10:25:41;98614.69;;;17.63;69.54
20696;BME280;10507;52.754;13.040;2022-09-16T10:28:20;98626.16;;;17.65;69.38
20696;BME280;10507;52.754;13.040;2022-09-16T10:30:50;98637.59;;;17.75;68.61
20696;BME280;10507;52.754;13.040;2022-09-16T10:33:22;98650.38;;;17.98;68.19
20696;BME280;10507;52.754;13.040;2022-09-16T10:35:53;98614.88;;;18.09;67.57
20696;BME280;10507;52.754;13.040;2022-09-16T10:38:26;98562.28;;;18.05;67.08
20696;BME280;10507;52.754;13.040;2022-09-16T10:41:06;98498.25;;;17.74;67.45
20696;BME280;10507;52.754;13.040;2022-09-16T10:43:36;98430.09;;;17.72;65.16
20696;BME280;10507;52.754;13.040;2022-09-16T10:46:05;98441.88;;;17.79;65.26
20696;BME280;10507;52.754;13.040;2022-09-16T10:48:35;98495.03;;;17.87;65.83
20696;BME280;10507;52.754;13.040;2022-09-16T10:51:04;98470.72;;;17.87;65.71
20696;BME280;10507;52.754;13.040;2022-09-16T10:53:35;98507.13;;;17.91;66.79
20696;BME280;10507;52.754;13.040;2022-09-16T10:56:16;98531.66;;;18.13;66.54
20696;BME280;10507;52.754;13.040;2022-09-16T10:58:44;98556.06;;;18.27;65.95
20696;BME280;10507;52.754;13.040;2022-09-16T11:01:25;98567.19;;;18.33;66.66
20696;BME280;10507;52.754;13.040;2022-09-16T11:04:30;98571.47;;;18.50;66.19
20696;BME280;10507;52.754;13.040;2022-09-16T11:07:17;98393.25;;;18.34;64.41
20696;BME280;10507;52.754;13.040;2022-09-16T11:09:53;98300.00;;;18.23;62.44
20696;BME280;10507;52.754;13.040;2022-09-16T11:12:49;98314.97;;;17.88;63.61
20696;BME280;10507;52.754;13.040;2022-09-16T11:15:34;98407.03;;;18.01;64.70
20696;BME280;10507;52.754;13.040;2022-09-16T11:18:22;98332.56;;;17.83;64.89
20696;BME280;10507;52.754;13.040;2022-09-16T11:21:07;98398.31;;;17.91;64.19
20696;BME280;10507;52.754;13.040;2022-09-16T11:23:47;98420.31;;;18.02;64.91
20696;BME280;10507;52.754;13.040;2022-09-16T11:26:24;98391.63;;;17.78;65.52
20696;BME280;10507;52.754;13.040;2022-09-16T11:29:13;98337.19;;;17.66;64.84
20696;BME280;10507;52.754;13.040;2022-09-16T11:31:50;98411.75;;;17.67;65.51
20696;BME280;10507;52.754;13.040;2022-09-16T11:34:29;98390.72;;;17.55;66.62
20696;BME280;10507;52.754;13.040;2022-09-16T11:37:06;98447.56;;;17.53;67.05
20696;BME280;10507;52.754;13.040;2022-09-16T11:39:45;98468.94;;;17.63;67.01
20696;BME280;10507;52.754;13.040;2022-09-16T11:42:23;98491.16;;;17.73;67.16
20696;BME280;10507;52.754;13.040;2022-09-16T11:45:02;98421.09;;;17.49;66.43
20696;BME280;10507;52.754;13.040;2022-09-16T11:47:46;98314.34;;;17.54;64.51
20696;BME280;10507;52.754;13.040;2022-09-16T11:50:25;98407.09;;;17.84;64.77
20696;BME280;10507;52.754;13.040;2022-09-16T11:53:13;98419.97;;;18.05;64.71
20696;BME280;10507;52.754;13.040;2022-09-16T11:55:54;98246.09;;;17.69;63.04
20696;BME280;10507;52.754;13.040;2022-09-16T11:58:35;98296.28;;;17.55;64.12
20696;BME280;10507;52.754;13.040;2022-09-16T12:01:14;98455.81;;;17.91;65.29
20696;BME280;10507;52.754;13.040;2022-09-16T12:03:48;98380.59;;;17.88;64.34
20696;BME280;10507;52.754;13.040;2022-09-16T12:06:22;98334.16;;;17.70;64.53
20696;BME280;10507;52.754;13.040;2022-09-16T12:08:56;98259.06;;;17.50;62.86
20696;BME280;10507;52.754;13.040;2022-09-16T12:11:27;98264.31;;;17.66;62.56
20696;BME280;10507;52.754;13.040;2022-09-16T12:14:07;98194.72;;;17.62;60.59
20696;BME280;10507;52.754;13.040;2022-09-16T12:16:42;98229.22;;;17.52;61.32
20696;BME280;10507;52.754;13.040;2022-09-16T12:19:16;98304.38;;;17.78;61.19
20696;BME280;10507;52.754;13.040;2022-09-16T12:21:48;98324.09;;;18.10;60.37
20696;BME280;10507;52.754;13.040;2022-09-16T12:24:28;98407.72;;;18.41;60.70
20696;BME280;10507;52.754;13.040;2022-09-16T12:27:03;98402.50;;;18.54;60.88
20696;BME280;10507;52.754;13.040;2022-09-16T12:29:39;98388.56;;;18.65;60.66
20696;BME280;10507;52.754;13.040;2022-09-16T12:32:14;98412.28;;;18.78;60.79
20696;BME280;10507;52.754;13.040;2022-09-16T12:34:48;98401.84;;;18.90;60.70
20696;BME280;10507;52.754;13.040;2022-09-16T12:37:26;98368.22;;;18.93;59.97
20696;BME280;10507;52.754;13.040;2022-09-16T12:39:56;98310.56;;;18.47;60.18
20696;BME280;10507;52.754;13.040;2022-09-16T12:45:57;98325.63;;;18.04;61.82
20696;BME280;10507;52.754;13.040;2022-09-16T12:48:54;98319.34;;;17.89;62.03
20696;BME280;10507;52.754;13.040;2022-09-16T12:51:43;98407.09;;;17.84;63.64
20696;BME280;10507;52.754;13.040;2022-09-16T12:54:41;98416.44;;;18.05;62.26
20696;BME280;10507;52.754;13.040;2022-09-16T12:57:43;98384.31;;;18.33;60.83
20696;BME280;10507;52.754;13.040;2022-09-16T13:00:19;98352.47;;;18.43;59.26
20696;BME280;10507;52.754;13.040;2022-09-16T13:02:50;98274.84;;;18.37;59.12
20696;BME280;10507;52.754;13.040;2022-09-16T13:05:27;98302.81;;;18.30;60.10
20696;BME280;10507;52.754;13.040;2022-09-16T13:08:01;98264.31;;;18.27;59.35
20696;BME280;10507;52.754;13.040;2022-09-16T13:10:31;98246.31;;;18.20;59.06
20696;BME280;10507;52.754;13.040;2022-09-16T13:13:24;98204.56;;;17.93;59.53
20696;BME280;10507;52.754;13.040;2022-09-16T13:15:56;98300.56;;;17.95;60.70
20696;BME280;10507;52.754;13.040;2022-09-16T13:18:37;98286.84;;;17.82;61.07
20696;BME280;10507;52.754;13.040;2022-09-16T13:21:18;98245.25;;;17.68;59.92
20696;BME280;10507;52.754;13.040;2022-09-16T13:23:52;98253.34;;;17.68;60.14
20696;BME280;10507;52.754;13.040;2022-09-16T13:26:23;98299.50;;;17.81;60.64
20696;BME280;10507;52.754;13.040;2022-09-16T13:28:51;98322.41;;;17.85;60.87
20696;BME280;10507;52.754;13.040;2022-09-16T13:31:28;98362.38;;;17.90;61.52
20696;BME280;10507;52.754;13.040;2022-09-16T13:34:13;98339.94;;;17.90;61.14